sensor_id;sensor_type;location;lat;lon;timestamp;P1;durP1;ratioP1;P2;durP2;ratioP2
53267;SDS011;39156;51.176;6.738;2022-10-18T00:02:10;34.77;;;32.80;;
53267;SDS011;39156;51.176;6.738;2022-10-18T00:04:35;32.57;;;30.77;;
53267;SDS011;39156;51.176;6.738;2022-10-18T00:07:01;33.03;;;31.13;;
53267;SDS011;39156;51.176;6.738;2022-10-18T00:09:27;33.73;;;31.80;;
53267;SDS011;39156;51.176;6.738;2022-10-18T00:11:53;33.58;;;31.77;;
53267;SDS011;39156;51.176;6.738;2022-10-18T00:14:19;32.50;;;30.63;;
53267;SDS011;39156;51.176;6.738;2022-10-18T00:16:45;33.53;;;31.40;;
53267;SDS011;39156;51.176;6.738;2022-10-18T00:19:11;33.37;;;31.57;;
53267;SDS011;39156;51.176;6.738;2022-10-18T00:21:37;31.60;;;29.80;;
53267;SDS011;39156;51.176;6.738;2022-10-18T00:24:03;35.65;;;33.63;;
53267;SDS011;39156;51.176;6.738;2022-10-18T00:26:29;32.10;;;30.20;;
53267;SDS011;39156;51.176;6.738;2022-10-18T00:28:56;32.38;;;30.58;;
53267;SDS011;39156;51.176;6.738;2022-10-18T00:34:01;33.70;;;31.58;;
53267;SDS011;39156;51.176;6.738;2022-10-18T00:39:01;31.67;;;29.92;;
53267;SDS011;39156;51.176;6.738;2022-10-18T00:41:30;33.97;;;32.00;;
53267;SDS011;39156;51.176;6.738;2022-10-18T00:44:03;34.05;;;32.15;;
53267;SDS011;39156;51.176;6.738;2022-10-18T00:46:37;35.15;;;33.15;;
53267;SDS011;39156;51.176;6.738;2022-10-18T00:49:14;33.35;;;31.52;;
53267;SDS011;39156;51.176;6.738;2022-10-18T00:54:12;34.50;;;32.60;;
53267;SDS011;39156;51.176;6.738;2022-10-18T00:56:40;33.28;;;31.27;;
53267;SDS011;39156;51.176;6.738;2022-10-18T00:59:08;33.83;;;31.83;;
53267;SDS011;39156;51.176;6.738;2022-10-18T01:04:01;33.70;;;31.80;;
53267;SDS011;39156;51.176;6.738;2022-10-18T01:06:27;35.00;;;33.10;;
53267;SDS011;39156;51.176;6.738;2022-10-18T01:09:04;33.30;;;31.33;;
53267;SDS011;39156;51.176;6.738;2022-10-18T01:15:28;34.17;;;31.67;;
53267;SDS011;39156;51.176;6.738;2022-10-18T01:18:00;33.30;;;31.15;;
53267;SDS011;39156;51.176;6.738;2022-10-18T01:20:57;33.72;;;31.55;;
53267;SDS011;39156;51.176;6.738;2022-10-18T01:23:51;33.92;;;32.08;;
53267;SDS011;39156;51.176;6.738;2022-10-18T01:27:12;33.00;;;31.10;;
53267;SDS011;39156;51.176;6.738;2022-10-18T01:32:53;33.88;;;31.88;;
53267;SDS011;39156;51.176;6.738;2022-10-18T01:35:26;33.42;;;31.45;;
53267;SDS011;39156;51.176;6.738;2022-10-18T01:37:58;34.30;;;32.15;;
53267;SDS011;39156;51.176;6.738;2022-10-18T01:40:28;33.63;;;31.73;;
53267;SDS011;39156;51.176;6.738;2022-10-18T01:42:55;32.92;;;31.00;;
53267;SDS011;39156;51.176;6.738;2022-10-18T01:45:20;35.17;;;32.93;;
53267;SDS011;39156;51.176;6.738;2022-10-18T01:47:48;33.92;;;31.92;;
53267;SDS011;39156;51.176;6.738;2022-10-18T01:52:52;33.58;;;31.52;;
53267;SDS011;39156;51.176;6.738;2022-10-18T01:55:18;33.80;;;31.83;;
53267;SDS011;39156;51.176;6.738;2022-10-18T01:58:04;34.40;;;32.35;;
53267;SDS011;39156;51.176;6.738;2022-10-18T02:00:31;34.60;;;32.60;;
53267;SDS011;39156;51.176;6.738;2022-10-18T02:03:13;35.87;;;32.87;;
53267;SDS011;39156;51.176;6.738;2022-10-18T02:05:53;35.03;;;32.97;;
53267;SDS011;39156;51.176;6.738;2022-10-18T02:11:10;33.08;;;31.15;;
53267;SDS011;39156;51.176;6.738;2022-10-18T02:13:39;35.10;;;33.00;;
53267;SDS011;39156;51.176;6.738;2022-10-18T02:16:11;37.15;;;34.95;;
53267;SDS011;39156;51.176;6.738;2022-10-18T02:18:54;34.53;;;32.55;;
53267;SDS011;39156;51.176;6.738;2022-10-18T02:21:24;34.47;;;32.50;;
53267;SDS011;39156;51.176;6.738;2022-10-18T02:23:53;34.97;;;32.97;;
53267;SDS011;39156;51.176;6.738;2022-10-18T02:26:21;33.47;;;31.27;;
53267;SDS011;39156;51.176;6.738;2022-10-18T02:28:47;34.60;;;32.40;;
53267;SDS011;39156;51.176;6.738;2022-10-18T02:34:05;33.50;;;31.50;;
53267;SDS011;39156;51.176;6.738;2022-10-18T02:36:51;32.92;;;31.02;;
53267;SDS011;39156;51.176;6.738;2022-10-18T02:39:24;33.65;;;31.77;;
53267;SDS011;39156;51.176;6.738;2022-10-18T02:41:55;34.33;;;32.33;;
53267;SDS011;39156;51.176;6.738;2022-10-18T02:44:22;33.35;;;31.35;;
53267;SDS011;39156;51.176;6.738;2022-10-18T02:46:48;34.77;;;32.53;;
53267;SDS011;39156;51.176;6.738;2022-10-18T02:49:14;33.63;;;31.63;;
53267;SDS011;39156;51.176;6.738;2022-10-18T02:51:39;35.00;;;32.93;;
53267;SDS011;39156;51.176;6.738;2022-10-18T02:54:05;35.87;;;33.57;;
53267;SDS011;39156;51.176;6.738;2022-10-18T02:58:58;36.20;;;33.95;;
53267;SDS011;39156;51.176;6.738;2022-10-18T03:01:24;37.17;;;34.97;;
53267;SDS011;39156;51.176;6.738;2022-10-18T03:03:50;35.27;;;33.10;;
53267;SDS011;39156;51.176;6.738;2022-10-18T03:06:16;35.93;;;33.73;;
53267;SDS011;39156;51.176;6.738;2022-10-18T03:08:41;37.83;;;35.47;;
53267;SDS011;39156;51.176;6.738;2022-10-18T03:11:07;38.63;;;36.23;;
53267;SDS011;39156;51.176;6.738;2022-10-18T03:13:33;38.63;;;36.03;;
53267;SDS011;39156;51.176;6.738;2022-10-18T03:15:59;36.97;;;34.72;;
53267;SDS011;39156;51.176;6.738;2022-10-18T03:18:25;38.53;;;35.72;;
53267;SDS011;39156;51.176;6.738;2022-10-18T03:20:50;38.67;;;36.27;;
53267;SDS011;39156;51.176;6.738;2022-10-18T03:23:16;40.63;;;38.03;;
53267;SDS011;39156;51.176;6.738;2022-10-18T03:25:42;37.93;;;35.53;;
53267;SDS011;39156;51.176;6.738;2022-10-18T03:28:08;39.13;;;36.70;;
53267;SDS011;39156;51.176;6.738;2022-10-18T03:30:34;49.47;;;45.93;;
53267;SDS011;39156;51.176;6.738;2022-10-18T03:32:59;42.33;;;39.60;;
53267;SDS011;39156;51.176;6.738;2022-10-18T03:35:25;41.20;;;38.43;;
53267;SDS011;39156;51.176;6.738;2022-10-18T03:37:51;39.97;;;37.33;;
53267;SDS011;39156;51.176;6.738;2022-10-18T03:40:16;41.40;;;38.77;;
53267;SDS011;39156;51.176;6.738;2022-10-18T03:42:42;37.17;;;34.80;;
53267;SDS011;39156;51.176;6.738;2022-10-18T03:45:08;38.77;;;36.13;;
53267;SDS011;39156;51.176;6.738;2022-10-18T03:47:34;38.30;;;35.77;;
53267;SDS011;39156;51.176;6.738;2022-10-18T03:49:59;40.57;;;37.83;;
53267;SDS011;39156;51.176;6.738;2022-10-18T03:52:25;40.40;;;37.73;;
53267;SDS011;39156;51.176;6.738;2022-10-18T03:54:51;38.27;;;35.77;;
53267;SDS011;39156;51.176;6.738;2022-10-18T03:57:16;39.97;;;37.17;;
53267;SDS011;39156;51.176;6.738;2022-10-18T03:59:42;40.63;;;37.93;;
53267;SDS011;39156;51.176;6.738;2022-10-18T04:02:08;38.80;;;36.40;;
53267;SDS011;39156;51.176;6.738;2022-10-18T04:04:33;40.23;;;37.40;;
53267;SDS011;39156;51.176;6.738;2022-10-18T04:06:59;39.23;;;36.73;;
53267;SDS011;39156;51.176;6.738;2022-10-18T04:09:25;39.40;;;36.63;;
53267;SDS011;39156;51.176;6.738;2022-10-18T04:11:50;42.47;;;39.30;;
53267;SDS011;39156;51.176;6.738;2022-10-18T04:14:16;39.03;;;36.53;;
53267;SDS011;39156;51.176;6.738;2022-10-18T04:16:45;39.15;;;36.45;;
53267;SDS011;39156;51.176;6.738;2022-10-18T04:19:11;39.13;;;36.53;;
53267;SDS011;39156;51.176;6.738;2022-10-18T04:21:36;42.73;;;39.53;;
53267;SDS011;39156;51.176;6.738;2022-10-18T04:24:02;41.23;;;38.23;;
53267;SDS011;39156;51.176;6.738;2022-10-18T04:26:28;40.47;;;37.67;;
53267;SDS011;39156;51.176;6.738;2022-10-18T04:28:54;40.37;;;37.57;;
53267;SDS011;39156;51.176;6.738;2022-10-18T04:31:19;42.00;;;39.15;;
53267;SDS011;39156;51.176;6.738;2022-10-18T04:33:45;39.90;;;37.20;;
53267;SDS011;39156;51.176;6.738;2022-10-18T04:36:11;37.95;;;35.42;;
53267;SDS011;39156;51.176;6.738;2022-10-18T04:38:36;39.30;;;36.40;;
53267;SDS011;39156;51.176;6.738;2022-10-18T04:41:02;40.93;;;38.07;;
53267;SDS011;39156;51.176;6.738;2022-10-18T04:43:28;40.00;;;37.40;;
53267;SDS011;39156;51.176;6.738;2022-10-18T04:45:54;39.07;;;36.50;;
53267;SDS011;39156;51.176;6.738;2022-10-18T04:48:20;37.57;;;35.20;;
53267;SDS011;39156;51.176;6.738;2022-10-18T04:50:48;40.70;;;38.00;;
53267;SDS011;39156;51.176;6.738;2022-10-18T04:53:15;40.55;;;37.92;;
53267;SDS011;39156;51.176;6.738;2022-10-18T04:55:43;39.50;;;36.80;;
53267;SDS011;39156;51.176;6.738;2022-10-18T04:58:13;41.05;;;38.28;;
53267;SDS011;39156;51.176;6.738;2022-10-18T05:00:40;40.08;;;37.28;;
53267;SDS011;39156;51.176;6.738;2022-10-18T05:03:06;41.97;;;39.00;;
53267;SDS011;39156;51.176;6.738;2022-10-18T05:05:33;40.90;;;37.92;;
53267;SDS011;39156;51.176;6.738;2022-10-18T05:07:59;40.53;;;37.73;;
53267;SDS011;39156;51.176;6.738;2022-10-18T05:10:25;42.87;;;39.73;;
53267;SDS011;39156;51.176;6.738;2022-10-18T05:12:50;41.88;;;38.78;;
53267;SDS011;39156;51.176;6.738;2022-10-18T05:15:16;43.40;;;39.97;;
53267;SDS011;39156;51.176;6.738;2022-10-18T05:17:42;42.03;;;39.00;;
53267;SDS011;39156;51.176;6.738;2022-10-18T05:20:07;40.97;;;38.13;;
53267;SDS011;39156;51.176;6.738;2022-10-18T05:22:33;39.78;;;36.97;;
53267;SDS011;39156;51.176;6.738;2022-10-18T05:24:59;41.63;;;38.63;;
53267;SDS011;39156;51.176;6.738;2022-10-18T05:27:25;37.93;;;35.30;;
53267;SDS011;39156;51.176;6.738;2022-10-18T05:29:52;41.75;;;38.55;;
53267;SDS011;39156;51.176;6.738;2022-10-18T05:32:18;42.03;;;38.60;;
53267;SDS011;39156;51.176;6.738;2022-10-18T05:34:44;43.77;;;40.67;;
53267;SDS011;39156;51.176;6.738;2022-10-18T05:37:09;39.50;;;36.83;;
53267;SDS011;39156;51.176;6.738;2022-10-18T05:39:36;41.40;;;38.50;;
53267;SDS011;39156;51.176;6.738;2022-10-18T05:42:02;43.30;;;40.05;;
53267;SDS011;39156;51.176;6.738;2022-10-18T05:44:28;39.70;;;36.90;;
53267;SDS011;39156;51.176;6.738;2022-10-18T05:46:54;42.00;;;39.07;;
53267;SDS011;39156;51.176;6.738;2022-10-18T05:49:20;41.28;;;38.42;;
53267;SDS011;39156;51.176;6.738;2022-10-18T05:51:45;39.93;;;36.97;;
53267;SDS011;39156;51.176;6.738;2022-10-18T05:54:11;41.63;;;38.60;;
53267;SDS011;39156;51.176;6.738;2022-10-18T05:56:37;40.80;;;37.80;;
53267;SDS011;39156;51.176;6.738;2022-10-18T05:59:03;41.00;;;38.20;;
53267;SDS011;39156;51.176;6.738;2022-10-18T06:01:34;43.63;;;40.53;;
53267;SDS011;39156;51.176;6.738;2022-10-18T06:04:06;39.67;;;36.88;;
53267;SDS011;39156;51.176;6.738;2022-10-18T06:06:34;41.80;;;38.47;;
53267;SDS011;39156;51.176;6.738;2022-10-18T06:09:00;40.88;;;37.22;;
53267;SDS011;39156;51.176;6.738;2022-10-18T06:11:27;42.47;;;39.58;;
53267;SDS011;39156;51.176;6.738;2022-10-18T06:13:54;41.53;;;38.60;;
53267;SDS011;39156;51.176;6.738;2022-10-18T06:16:22;44.30;;;40.97;;
53267;SDS011;39156;51.176;6.738;2022-10-18T06:18:49;41.13;;;38.35;;
53267;SDS011;39156;51.176;6.738;2022-10-18T06:21:17;41.28;;;38.17;;
53267;SDS011;39156;51.176;6.738;2022-10-18T06:23:51;40.00;;;37.25;;
53267;SDS011;39156;51.176;6.738;2022-10-18T06:26:19;42.13;;;39.22;;
53267;SDS011;39156;51.176;6.738;2022-10-18T06:28:46;41.78;;;39.00;;
53267;SDS011;39156;51.176;6.738;2022-10-18T06:31:12;41.47;;;38.63;;
53267;SDS011;39156;51.176;6.738;2022-10-18T06:36:05;41.30;;;38.25;;
53267;SDS011;39156;51.176;6.738;2022-10-18T06:38:35;42.53;;;39.22;;
53267;SDS011;39156;51.176;6.738;2022-10-18T06:41:01;46.07;;;42.77;;
53267;SDS011;39156;51.176;6.738;2022-10-18T06:43:28;44.05;;;40.88;;
53267;SDS011;39156;51.176;6.738;2022-10-18T06:45:54;47.33;;;44.03;;
53267;SDS011;39156;51.176;6.738;2022-10-18T06:48:20;46.43;;;42.93;;
53267;SDS011;39156;51.176;6.738;2022-10-18T06:50:49;46.75;;;43.35;;
53267;SDS011;39156;51.176;6.738;2022-10-18T06:53:27;45.78;;;42.45;;
53267;SDS011;39156;51.176;6.738;2022-10-18T06:55:59;50.88;;;46.72;;
53267;SDS011;39156;51.176;6.738;2022-10-18T06:58:26;47.22;;;43.55;;
53267;SDS011;39156;51.176;6.738;2022-10-18T07:03:18;49.83;;;46.03;;
53267;SDS011;39156;51.176;6.738;2022-10-18T07:05:45;49.08;;;45.50;;
53267;SDS011;39156;51.176;6.738;2022-10-18T07:10:38;45.83;;;42.53;;
53267;SDS011;39156;51.176;6.738;2022-10-18T07:13:04;46.80;;;43.20;;
53267;SDS011;39156;51.176;6.738;2022-10-18T07:15:30;45.83;;;42.43;;
53267;SDS011;39156;51.176;6.738;2022-10-18T07:17:55;47.23;;;43.73;;
53267;SDS011;39156;51.176;6.738;2022-10-18T07:20:21;48.63;;;44.70;;
53267;SDS011;39156;51.176;6.738;2022-10-18T07:22:47;46.28;;;42.85;;
53267;SDS011;39156;51.176;6.738;2022-10-18T07:25:13;46.42;;;42.47;;
53267;SDS011;39156;51.176;6.738;2022-10-18T07:27:40;47.87;;;44.23;;
53267;SDS011;39156;51.176;6.738;2022-10-18T07:30:08;46.92;;;43.60;;
53267;SDS011;39156;51.176;6.738;2022-10-18T07:32:35;46.67;;;42.78;;
53267;SDS011;39156;51.176;6.738;2022-10-18T07:35:00;46.30;;;42.83;;
53267;SDS011;39156;51.176;6.738;2022-10-18T07:37:27;47.92;;;44.15;;
53267;SDS011;39156;51.176;6.738;2022-10-18T07:39:53;45.30;;;41.75;;
53267;SDS011;39156;51.176;6.738;2022-10-18T07:42:19;43.40;;;40.13;;
53267;SDS011;39156;51.176;6.738;2022-10-18T07:44:44;45.77;;;42.07;;
53267;SDS011;39156;51.176;6.738;2022-10-18T07:47:10;44.50;;;41.30;;
53267;SDS011;39156;51.176;6.738;2022-10-18T07:49:36;44.97;;;41.43;;
53267;SDS011;39156;51.176;6.738;2022-10-18T07:52:01;45.43;;;42.03;;
53267;SDS011;39156;51.176;6.738;2022-10-18T07:54:27;43.67;;;40.37;;
53267;SDS011;39156;51.176;6.738;2022-10-18T07:56:53;41.90;;;38.77;;
53267;SDS011;39156;51.176;6.738;2022-10-18T07:59:18;43.57;;;40.27;;
53267;SDS011;39156;51.176;6.738;2022-10-18T08:01:44;44.50;;;41.03;;
53267;SDS011;39156;51.176;6.738;2022-10-18T08:04:10;46.20;;;42.67;;
53267;SDS011;39156;51.176;6.738;2022-10-18T08:06:35;47.87;;;43.90;;
53267;SDS011;39156;51.176;6.738;2022-10-18T08:09:01;49.47;;;45.57;;
53267;SDS011;39156;51.176;6.738;2022-10-18T08:11:27;55.20;;;50.67;;
53267;SDS011;39156;51.176;6.738;2022-10-18T08:13:53;55.47;;;50.67;;
53267;SDS011;39156;51.176;6.738;2022-10-18T08:16:25;57.93;;;52.53;;
53267;SDS011;39156;51.176;6.738;2022-10-18T08:18:52;52.90;;;48.53;;
53267;SDS011;39156;51.176;6.738;2022-10-18T08:21:21;53.33;;;48.63;;
53267;SDS011;39156;51.176;6.738;2022-10-18T08:23:47;55.67;;;50.13;;
53267;SDS011;39156;51.176;6.738;2022-10-18T08:26:17;59.45;;;53.83;;
53267;SDS011;39156;51.176;6.738;2022-10-18T08:28:44;56.80;;;51.58;;
53267;SDS011;39156;51.176;6.738;2022-10-18T08:31:11;58.45;;;52.97;;
53267;SDS011;39156;51.176;6.738;2022-10-18T08:33:41;58.60;;;52.80;;
53267;SDS011;39156;51.176;6.738;2022-10-18T08:36:08;57.40;;;51.47;;
53267;SDS011;39156;51.176;6.738;2022-10-18T08:38:38;57.28;;;51.78;;
53267;SDS011;39156;51.176;6.738;2022-10-18T08:46:50;65.93;;;59.22;;
53267;SDS011;39156;51.176;6.738;2022-10-18T08:49:35;67.93;;;60.67;;
53267;SDS011;39156;51.176;6.738;2022-10-18T08:55:39;61.35;;;55.72;;
53267;SDS011;39156;51.176;6.738;2022-10-18T08:58:00;61.03;;;54.83;;
53267;SDS011;39156;51.176;6.738;2022-10-18T09:00:28;63.30;;;57.38;;
53267;SDS011;39156;51.176;6.738;2022-10-18T09:06:11;60.50;;;54.85;;
53267;SDS011;39156;51.176;6.738;2022-10-18T09:25:43;64.85;;;58.47;;
53267;SDS011;39156;51.176;6.738;2022-10-18T09:28:15;62.08;;;56.17;;
53267;SDS011;39156;51.176;6.738;2022-10-18T09:30:51;64.10;;;57.92;;
53267;SDS011;39156;51.176;6.738;2022-10-18T09:36:36;61.25;;;55.58;;
53267;SDS011;39156;51.176;6.738;2022-10-18T09:39:13;61.72;;;56.08;;
53267;SDS011;39156;51.176;6.738;2022-10-18T09:41:49;64.00;;;57.97;;
53267;SDS011;39156;51.176;6.738;2022-10-18T09:46:54;60.90;;;55.38;;
53267;SDS011;39156;51.176;6.738;2022-10-18T09:49:42;60.95;;;54.92;;
53267;SDS011;39156;51.176;6.738;2022-10-18T09:52:12;62.72;;;56.92;;
53267;SDS011;39156;51.176;6.738;2022-10-18T09:54:46;61.08;;;55.60;;
53267;SDS011;39156;51.176;6.738;2022-10-18T10:00:14;58.92;;;53.65;;
53267;SDS011;39156;51.176;6.738;2022-10-18T10:02:46;59.20;;;54.00;;
53267;SDS011;39156;51.176;6.738;2022-10-18T10:05:12;59.73;;;54.13;;
53267;SDS011;39156;51.176;6.738;2022-10-18T10:07:46;60.28;;;54.70;;
53267;SDS011;39156;51.176;6.738;2022-10-18T10:10:20;62.97;;;57.22;;
53267;SDS011;39156;51.176;6.738;2022-10-18T10:12:46;69.07;;;61.90;;
53267;SDS011;39156;51.176;6.738;2022-10-18T10:18:03;74.13;;;66.50;;
53267;SDS011;39156;51.176;6.738;2022-10-18T10:21:01;80.22;;;71.65;;
53267;SDS011;39156;51.176;6.738;2022-10-18T10:23:32;79.07;;;70.57;;
53267;SDS011;39156;51.176;6.738;2022-10-18T10:26:03;80.93;;;72.00;;
53267;SDS011;39156;51.176;6.738;2022-10-18T10:28:52;91.90;;;78.07;;
53267;SDS011;39156;51.176;6.738;2022-10-18T10:31:28;89.30;;;78.63;;
53267;SDS011;39156;51.176;6.738;2022-10-18T10:42:54;99.43;;;83.50;;
53267;SDS011;39156;51.176;6.738;2022-10-18T10:45:38;100.20;;;81.22;;
53267;SDS011;39156;51.176;6.738;2022-10-18T10:48:24;96.60;;;78.22;;
53267;SDS011;39156;51.176;6.738;2022-10-18T10:50:57;101.80;;;80.47;;
53267;SDS011;39156;51.176;6.738;2022-10-18T10:53:38;86.20;;;76.55;;
53267;SDS011;39156;51.176;6.738;2022-10-18T10:56:25;82.38;;;73.47;;
53267;SDS011;39156;51.176;6.738;2022-10-18T10:58:54;91.65;;;76.75;;
53267;SDS011;39156;51.176;6.738;2022-10-18T11:01:32;81.75;;;71.13;;
53267;SDS011;39156;51.176;6.738;2022-10-18T11:04:00;81.57;;;69.20;;
53267;SDS011;39156;51.176;6.738;2022-10-18T11:06:49;73.22;;;63.85;;
53267;SDS011;39156;51.176;6.738;2022-10-18T11:12:23;65.78;;;58.88;;
53267;SDS011;39156;51.176;6.738;2022-10-18T11:20:39;57.83;;;52.53;;
53267;SDS011;39156;51.176;6.738;2022-10-18T11:23:13;57.92;;;52.53;;
53267;SDS011;39156;51.176;6.738;2022-10-18T11:25:47;59.65;;;53.95;;
53267;SDS011;39156;51.176;6.738;2022-10-18T11:31:11;56.83;;;51.45;;
53267;SDS011;39156;51.176;6.738;2022-10-18T11:34:17;50.97;;;46.63;;
53267;SDS011;39156;51.176;6.738;2022-10-18T11:39:26;50.17;;;45.95;;
53267;SDS011;39156;51.176;6.738;2022-10-18T11:42:33;47.30;;;43.50;;
53267;SDS011;39156;51.176;6.738;2022-10-18T11:45:37;46.03;;;42.53;;
53267;SDS011;39156;51.176;6.738;2022-10-18T11:54:00;42.63;;;39.57;;
53267;SDS011;39156;51.176;6.738;2022-10-18T12:03:21;49.67;;;45.40;;
53267;SDS011;39156;51.176;6.738;2022-10-18T12:06:14;50.45;;;46.17;;
53267;SDS011;39156;51.176;6.738;2022-10-18T12:08:48;47.70;;;43.83;;
53267;SDS011;39156;51.176;6.738;2022-10-18T12:11:40;48.95;;;44.70;;
53267;SDS011;39156;51.176;6.738;2022-10-18T12:14:56;49.28;;;45.28;;
53267;SDS011;39156;51.176;6.738;2022-10-18T12:18:02;45.35;;;41.95;;
53267;SDS011;39156;51.176;6.738;2022-10-18T12:20:37;46.08;;;42.47;;
53267;SDS011;39156;51.176;6.738;2022-10-18T12:23:20;46.72;;;43.05;;
53267;SDS011;39156;51.176;6.738;2022-10-18T12:26:14;45.22;;;41.63;;
53267;SDS011;39156;51.176;6.738;2022-10-18T12:28:48;48.85;;;44.33;;
53267;SDS011;39156;51.176;6.738;2022-10-18T12:31:48;42.95;;;39.65;;
53267;SDS011;39156;51.176;6.738;2022-10-18T12:34:34;44.80;;;41.20;;
53267;SDS011;39156;51.176;6.738;2022-10-18T12:37:48;44.13;;;40.63;;
53267;SDS011;39156;51.176;6.738;2022-10-18T12:40:42;41.83;;;38.78;;
53267;SDS011;39156;51.176;6.738;2022-10-18T12:43:28;43.67;;;40.05;;
53267;SDS011;39156;51.176;6.738;2022-10-18T12:46:05;41.55;;;38.60;;
53267;SDS011;39156;51.176;6.738;2022-10-18T12:48:38;44.25;;;40.78;;
53267;SDS011;39156;51.176;6.738;2022-10-18T12:51:13;41.15;;;37.83;;
53267;SDS011;39156;51.176;6.738;2022-10-18T13:11:55;38.20;;;35.50;;
53267;SDS011;39156;51.176;6.738;2022-10-18T13:15:02;37.55;;;34.83;;
53267;SDS011;39156;51.176;6.738;2022-10-18T13:20:48;39.15;;;36.33;;
53267;SDS011;39156;51.176;6.738;2022-10-18T13:35:44;35.90;;;33.60;;
53267;SDS011;39156;51.176;6.738;2022-10-18T13:55:01;34.17;;;31.77;;
53267;SDS011;39156;51.176;6.738;2022-10-18T13:58:19;36.15;;;33.63;;
53267;SDS011;39156;51.176;6.738;2022-10-18T14:01:06;35.28;;;32.80;;
53267;SDS011;39156;51.176;6.738;2022-10-18T14:03:50;36.22;;;33.38;;
53267;SDS011;39156;51.176;6.738;2022-10-18T14:06:40;34.88;;;32.45;;
53267;SDS011;39156;51.176;6.738;2022-10-18T14:14:52;37.47;;;34.70;;
53267;SDS011;39156;51.176;6.738;2022-10-18T14:17:35;37.28;;;34.28;;
53267;SDS011;39156;51.176;6.738;2022-10-18T14:20:17;37.38;;;34.85;;
53267;SDS011;39156;51.176;6.738;2022-10-18T14:23:01;36.63;;;34.05;;
53267;SDS011;39156;51.176;6.738;2022-10-18T14:25:54;34.75;;;32.47;;
53267;SDS011;39156;51.176;6.738;2022-10-18T14:28:30;36.95;;;33.88;;
53267;SDS011;39156;51.176;6.738;2022-10-18T14:31:00;35.23;;;32.70;;
53267;SDS011;39156;51.176;6.738;2022-10-18T14:38:52;36.00;;;33.50;;
53267;SDS011;39156;51.176;6.738;2022-10-18T14:41:27;36.92;;;34.33;;
53267;SDS011;39156;51.176;6.738;2022-10-18T14:46:50;37.20;;;34.70;;
53267;SDS011;39156;51.176;6.738;2022-10-18T14:49:22;36.13;;;33.60;;
53267;SDS011;39156;51.176;6.738;2022-10-18T14:51:49;38.13;;;35.37;;
53267;SDS011;39156;51.176;6.738;2022-10-18T14:54:27;38.72;;;35.63;;
53267;SDS011;39156;51.176;6.738;2022-10-18T14:56:56;38.88;;;35.88;;
53267;SDS011;39156;51.176;6.738;2022-10-18T14:59:24;38.58;;;35.85;;
53267;SDS011;39156;51.176;6.738;2022-10-18T15:02:16;37.33;;;34.67;;
53267;SDS011;39156;51.176;6.738;2022-10-18T15:04:53;37.55;;;34.85;;
53267;SDS011;39156;51.176;6.738;2022-10-18T15:07:22;36.15;;;33.67;;
53267;SDS011;39156;51.176;6.738;2022-10-18T15:09:48;36.55;;;33.88;;
53267;SDS011;39156;51.176;6.738;2022-10-18T15:12:15;40.40;;;37.42;;
53267;SDS011;39156;51.176;6.738;2022-10-18T15:14:42;37.78;;;34.60;;
53267;SDS011;39156;51.176;6.738;2022-10-18T15:17:14;34.95;;;32.55;;
53267;SDS011;39156;51.176;6.738;2022-10-18T15:20:16;35.97;;;32.92;;
53267;SDS011;39156;51.176;6.738;2022-10-18T15:22:49;37.65;;;34.75;;
53267;SDS011;39156;51.176;6.738;2022-10-18T15:27:48;34.72;;;32.22;;
53267;SDS011;39156;51.176;6.738;2022-10-18T15:30:24;34.13;;;31.67;;
53267;SDS011;39156;51.176;6.738;2022-10-18T15:33:16;36.83;;;33.95;;
53267;SDS011;39156;51.176;6.738;2022-10-18T15:35:46;36.10;;;33.42;;
53267;SDS011;39156;51.176;6.738;2022-10-18T15:40:51;35.92;;;33.33;;
53267;SDS011;39156;51.176;6.738;2022-10-18T15:45:59;36.45;;;33.85;;
53267;SDS011;39156;51.176;6.738;2022-10-18T15:48:35;34.85;;;32.38;;
53267;SDS011;39156;51.176;6.738;2022-10-18T15:51:05;36.28;;;33.88;;
53267;SDS011;39156;51.176;6.738;2022-10-18T15:53:43;35.85;;;32.88;;
53267;SDS011;39156;51.176;6.738;2022-10-18T16:01:22;33.63;;;31.33;;
53267;SDS011;39156;51.176;6.738;2022-10-18T16:03:59;33.53;;;31.52;;
53267;SDS011;39156;51.176;6.738;2022-10-18T16:06:31;36.08;;;33.53;;
53267;SDS011;39156;51.176;6.738;2022-10-18T16:08:59;34.28;;;31.92;;
53267;SDS011;39156;51.176;6.738;2022-10-18T16:11:24;35.20;;;32.80;;
53267;SDS011;39156;51.176;6.738;2022-10-18T16:13:52;33.60;;;31.15;;
53267;SDS011;39156;51.176;6.738;2022-10-18T16:16:19;33.57;;;31.40;;
53267;SDS011;39156;51.176;6.738;2022-10-18T16:18:49;33.95;;;31.88;;
53267;SDS011;39156;51.176;6.738;2022-10-18T16:23:46;34.38;;;31.98;;
53267;SDS011;39156;51.176;6.738;2022-10-18T16:26:13;32.80;;;30.90;;
53267;SDS011;39156;51.176;6.738;2022-10-18T16:28:40;33.47;;;31.33;;
53267;SDS011;39156;51.176;6.738;2022-10-18T16:31:06;33.47;;;31.25;;
53267;SDS011;39156;51.176;6.738;2022-10-18T16:33:35;32.47;;;30.48;;
53267;SDS011;39156;51.176;6.738;2022-10-18T16:36:01;33.77;;;31.50;;
53267;SDS011;39156;51.176;6.738;2022-10-18T16:38:29;33.95;;;31.58;;
53267;SDS011;39156;51.176;6.738;2022-10-18T16:40:58;33.92;;;31.58;;
53267;SDS011;39156;51.176;6.738;2022-10-18T16:43:25;35.83;;;33.65;;
53267;SDS011;39156;51.176;6.738;2022-10-18T16:45:52;33.97;;;31.70;;
53267;SDS011;39156;51.176;6.738;2022-10-18T16:48:20;35.22;;;32.53;;
53267;SDS011;39156;51.176;6.738;2022-10-18T16:50:49;35.55;;;33.05;;
53267;SDS011;39156;51.176;6.738;2022-10-18T16:53:16;36.20;;;33.45;;
53267;SDS011;39156;51.176;6.738;2022-10-18T16:55:47;34.00;;;31.50;;
53267;SDS011;39156;51.176;6.738;2022-10-18T16:58:18;35.20;;;32.90;;
53267;SDS011;39156;51.176;6.738;2022-10-18T17:00:45;34.03;;;31.40;;
53267;SDS011;39156;51.176;6.738;2022-10-18T17:03:11;36.17;;;33.80;;
53267;SDS011;39156;51.176;6.738;2022-10-18T17:05:38;36.25;;;34.05;;
53267;SDS011;39156;51.176;6.738;2022-10-18T17:10:30;35.60;;;33.33;;
53267;SDS011;39156;51.176;6.738;2022-10-18T17:12:56;34.03;;;31.50;;
53267;SDS011;39156;51.176;6.738;2022-10-18T17:15:22;34.55;;;32.22;;
53267;SDS011;39156;51.176;6.738;2022-10-18T17:17:48;35.15;;;31.90;;
53267;SDS011;39156;51.176;6.738;2022-10-18T17:20:19;36.72;;;33.58;;
53267;SDS011;39156;51.176;6.738;2022-10-18T17:22:50;36.13;;;33.08;;
53267;SDS011;39156;51.176;6.738;2022-10-18T17:25:17;33.92;;;31.67;;
53267;SDS011;39156;51.176;6.738;2022-10-18T17:27:43;35.42;;;32.83;;
53267;SDS011;39156;51.176;6.738;2022-10-18T17:30:10;37.75;;;35.08;;
53267;SDS011;39156;51.176;6.738;2022-10-18T17:32:38;35.05;;;32.70;;
53267;SDS011;39156;51.176;6.738;2022-10-18T17:35:07;36.83;;;34.08;;
53267;SDS011;39156;51.176;6.738;2022-10-18T17:37:33;35.03;;;32.72;;
53267;SDS011;39156;51.176;6.738;2022-10-18T17:40:02;34.35;;;32.08;;
53267;SDS011;39156;51.176;6.738;2022-10-18T17:42:32;33.75;;;31.40;;
53267;SDS011;39156;51.176;6.738;2022-10-18T17:44:58;37.60;;;34.28;;
53267;SDS011;39156;51.176;6.738;2022-10-18T17:47:24;39.42;;;36.70;;
53267;SDS011;39156;51.176;6.738;2022-10-18T17:49:50;36.20;;;33.33;;
53267;SDS011;39156;51.176;6.738;2022-10-18T17:52:15;35.38;;;33.00;;
53267;SDS011;39156;51.176;6.738;2022-10-18T17:54:41;37.33;;;34.70;;
53267;SDS011;39156;51.176;6.738;2022-10-18T17:57:06;35.63;;;33.33;;
53267;SDS011;39156;51.176;6.738;2022-10-18T17:59:32;33.78;;;31.05;;